createdAt,value
2019-03-19T00:00:44.250Z,11.80
2019-03-19T00:01:44.175Z,11.65
2019-03-19T00:02:44.104Z,11.69
2019-03-19T00:03:44.015Z,11.57
2019-03-19T00:04:43.945Z,11.61
2019-03-19T00:05:43.871Z,11.58
2019-03-19T00:06:43.795Z,11.37
2019-03-19T00:07:43.753Z,11.43
2019-03-19T00:08:43.662Z,11.43
2019-03-19T00:09:43.575Z,11.39
2019-03-19T00:10:43.507Z,11.40
2019-03-19T00:11:43.440Z,11.37
2019-03-19T00:12:43.368Z,11.18
2019-03-19T00:13:43.297Z,11.22
2019-03-19T00:14:43.223Z,11.28
2019-03-19T00:15:43.135Z,11.40
2019-03-19T00:16:43.059Z,11.35
2019-03-19T00:17:42.998Z,11.33
2019-03-19T00:18:42.926Z,11.17
2019-03-19T00:19:42.837Z,11.29
2019-03-19T00:20:42.781Z,11.24
2019-03-19T00:21:42.691Z,11.27
2019-03-19T00:22:42.619Z,11.19
2019-03-19T00:23:42.558Z,11.15
2019-03-19T00:24:42.487Z,11.17
2019-03-19T00:25:42.399Z,11.29
2019-03-19T00:26:42.325Z,11.35
2019-03-19T00:27:42.267Z,11.37
2019-03-19T00:28:42.189Z,11.28
2019-03-19T00:29:42.112Z,11.42
2019-03-19T00:30:42.048Z,11.27
2019-03-19T00:31:42.010Z,11.28
2019-03-19T00:32:41.887Z,11.28
2019-03-19T00:33:41.807Z,11.27
2019-03-19T00:34:41.731Z,11.15
2019-03-19T00:35:41.674Z,11.17
2019-03-19T00:36:41.594Z,10.97
2019-03-19T00:37:41.527Z,11.11
2019-03-19T00:38:41.445Z,10.96
2019-03-19T00:39:41.361Z,10.96
2019-03-19T00:40:41.291Z,11.06
2019-03-19T00:41:41.233Z,11.06
2019-03-19T00:42:41.155Z,11.15
2019-03-19T00:43:41.068Z,11.11
2019-03-19T00:44:40.991Z,11.14
2019-03-19T00:45:40.916Z,11.02
2019-03-19T00:46:40.843Z,11.06
2019-03-19T00:47:40.782Z,11.11
2019-03-19T00:48:40.712Z,11.22
2019-03-19T00:49:40.619Z,11.42
2019-03-19T00:50:40.547Z,11.46
2019-03-19T00:51:40.501Z,11.22
2019-03-19T00:52:40.409Z,11.32
2019-03-19T00:53:40.335Z,11.33
2019-03-19T00:54:40.262Z,11.37
2019-03-19T00:55:41.091Z,11.39
2019-03-19T00:56:40.097Z,11.49
2019-03-19T00:57:40.036Z,11.42
2019-03-19T00:58:39.961Z,11.49
2019-03-19T00:59:39.875Z,11.47
2019-03-19T01:00:39.805Z,11.33
2019-03-19T01:01:39.729Z,11.39
2019-03-19T01:02:39.657Z,11.35
2019-03-19T01:03:39.596Z,11.46
2019-03-19T01:04:39.519Z,11.32
2019-03-19T01:05:39.447Z,11.29
2019-03-19T01:06:39.375Z,11.32
2019-03-19T01:07:39.286Z,11.43
2019-03-19T01:08:39.214Z,11.40
2019-03-19T01:09:39.137Z,11.43
2019-03-19T01:10:39.069Z,11.40
2019-03-19T01:11:39.003Z,11.40
2019-03-19T01:12:38.930Z,11.39
2019-03-19T01:13:38.841Z,11.43
2019-03-19T01:14:38.765Z,11.44
2019-03-19T01:15:38.707Z,11.47
2019-03-19T01:16:38.637Z,11.39
2019-03-19T01:17:38.556Z,11.46
2019-03-19T01:18:38.484Z,11.47
2019-03-19T01:19:38.397Z,11.44
2019-03-19T01:20:38.325Z,11.39
2019-03-19T01:21:38.251Z,11.49
2019-03-19T01:22:38.218Z,11.44
2019-03-19T01:23:38.112Z,11.43
2019-03-19T01:24:38.038Z,11.27
2019-03-19T01:25:37.967Z,11.25
2019-03-19T01:26:37.891Z,11.42
2019-03-19T01:27:37.807Z,11.19
2019-03-19T01:28:37.735Z,11.37
2019-03-19T01:29:37.669Z,11.43
2019-03-19T01:30:37.601Z,11.47
2019-03-19T01:31:37.509Z,11.40
2019-03-19T01:32:37.439Z,11.43
2019-03-19T01:33:37.398Z,11.39
2019-03-19T01:34:37.287Z,11.29
2019-03-19T01:35:37.231Z,11.39
2019-03-19T01:36:37.157Z,11.33
2019-03-19T01:37:37.086Z,11.37
2019-03-19T01:38:37.010Z,11.19
2019-03-19T01:39:36.924Z,11.15
2019-03-19T01:40:36.849Z,11.11
2019-03-19T01:41:36.777Z,11.14
2019-03-19T01:42:36.702Z,11.17
2019-03-19T01:43:36.639Z,11.17
2019-03-19T01:44:36.564Z,11.18
2019-03-19T01:45:36.475Z,11.18
2019-03-19T01:46:36.402Z,11.25
2019-03-19T01:47:36.343Z,11.22
2019-03-19T01:48:36.267Z,11.35
2019-03-19T01:49:36.195Z,11.42
2019-03-19T01:50:36.119Z,11.32
2019-03-19T01:51:36.031Z,11.32
2019-03-19T01:52:35.960Z,11.39
2019-03-19T01:53:35.902Z,11.36
2019-03-19T01:54:35.823Z,11.46
2019-03-19T01:55:35.741Z,11.27
2019-03-19T01:56:35.664Z,11.24
2019-03-19T01:57:35.591Z,11.40
2019-03-19T01:58:35.518Z,11.15
2019-03-19T01:59:35.453Z,11.18
2019-03-19T02:00:35.384Z,11.24
2019-03-19T02:01:35.297Z,11.14
2019-03-19T02:02:35.217Z,11.19
2019-03-19T02:03:35.159Z,11.21
2019-03-19T02:04:35.084Z,11.19
2019-03-19T02:05:35.015Z,11.21
2019-03-19T02:06:34.938Z,11.28
2019-03-19T02:07:34.848Z,11.28
2019-03-19T02:08:34.779Z,11.42
2019-03-19T02:09:34.703Z,11.36
2019-03-19T02:10:34.627Z,11.32
2019-03-19T02:11:34.568Z,11.33
2019-03-19T02:12:34.549Z,11.37
2019-03-19T02:13:34.420Z,11.27
2019-03-19T02:14:34.343Z,11.09
2019-03-19T02:15:34.259Z,11.14
2019-03-19T02:16:34.184Z,11.17
2019-03-19T02:17:34.122Z,11.14
2019-03-19T02:18:34.045Z,11.07
2019-03-19T02:19:33.963Z,11.02
2019-03-19T02:20:33.888Z,10.92
2019-03-19T02:21:33.814Z,11.04
2019-03-19T02:22:33.737Z,10.97
2019-03-19T02:23:33.679Z,11.02
2019-03-19T02:24:33.599Z,11.11
2019-03-19T02:25:33.527Z,11.11
2019-03-19T02:26:33.454Z,11.07
2019-03-19T02:27:33.366Z,11.11
2019-03-19T02:28:33.289Z,10.99
2019-03-19T02:29:33.220Z,10.89
2019-03-19T02:30:33.152Z,10.91
2019-03-19T02:31:33.085Z,10.96
2019-03-19T02:32:33.010Z,10.89
2019-03-19T02:33:32.921Z,10.97
2019-03-19T02:34:32.848Z,10.94
2019-03-19T02:35:32.787Z,10.99
2019-03-19T02:36:32.710Z,11.06
2019-03-19T02:37:32.638Z,11.07
2019-03-19T02:38:32.564Z,11.14
2019-03-19T02:39:32.475Z,11.11
2019-03-19T02:40:32.399Z,11.07
2019-03-19T02:41:32.325Z,10.94
2019-03-19T02:42:32.252Z,10.97
2019-03-19T02:43:32.193Z,10.96
2019-03-19T02:44:32.122Z,10.91
2019-03-19T02:45:32.048Z,10.88
2019-03-19T02:46:31.975Z,10.85
2019-03-19T02:47:31.917Z,10.91
2019-03-19T02:48:31.804Z,10.91
2019-03-19T02:49:31.744Z,10.91
2019-03-19T02:50:31.671Z,10.97
2019-03-19T02:51:31.580Z,11.04
2019-03-19T02:52:31.507Z,10.97
2019-03-19T02:53:31.436Z,10.94
2019-03-19T02:54:31.363Z,10.96
2019-03-19T02:55:31.308Z,10.94
2019-03-19T02:56:33.293Z,11.03
2019-03-19T02:57:31.138Z,11.10
2019-03-19T02:58:31.061Z,11.09
2019-03-19T02:59:31.000Z,11.06
2019-03-19T03:00:30.980Z,11.11
2019-03-19T03:01:30.852Z,11.07
2019-03-19T03:02:30.782Z,11.03
2019-03-19T03:03:30.692Z,11.02
2019-03-19T03:04:30.618Z,10.96
2019-03-19T03:05:30.560Z,10.91
2019-03-19T03:06:30.469Z,10.89
2019-03-19T03:07:30.393Z,10.74
2019-03-19T03:08:30.341Z,10.70
2019-03-19T03:09:30.252Z,10.81
2019-03-19T03:10:30.187Z,10.86
2019-03-19T03:11:30.113Z,10.86
2019-03-19T03:12:30.039Z,10.86
2019-03-19T03:13:29.973Z,10.99
2019-03-19T03:14:29.879Z,10.86
2019-03-19T03:15:29.803Z,10.88
2019-03-19T03:16:29.728Z,10.96
2019-03-19T03:17:29.657Z,10.97
2019-03-19T03:18:29.590Z,10.85
2019-03-19T03:19:29.515Z,10.91
2019-03-19T03:20:29.430Z,10.86
2019-03-19T03:21:29.354Z,10.85
2019-03-19T03:22:29.297Z,10.92
2019-03-19T03:23:29.220Z,10.91
2019-03-19T03:24:29.148Z,10.96
2019-03-19T03:25:29.070Z,10.92
2019-03-19T03:26:28.981Z,10.86
2019-03-19T03:27:28.907Z,10.94
2019-03-19T03:28:28.834Z,11.03
2019-03-19T03:29:28.761Z,11.03
2019-03-19T03:30:28.709Z,11.07
2019-03-19T03:31:28.630Z,10.94
2019-03-19T03:32:28.547Z,10.86
2019-03-19T03:33:28.486Z,10.92
2019-03-19T03:34:28.402Z,10.86
2019-03-19T03:35:28.323Z,10.89
2019-03-19T03:36:28.252Z,10.94
2019-03-19T03:37:28.181Z,10.96
2019-03-19T03:38:28.090Z,10.91
2019-03-19T03:39:28.017Z,10.91
2019-03-19T03:40:27.945Z,10.88
2019-03-19T03:41:27.874Z,10.74
2019-03-19T03:42:27.809Z,10.78
2019-03-19T03:43:27.731Z,10.88
2019-03-19T03:44:27.665Z,10.82
2019-03-19T03:45:27.586Z,10.92
2019-03-19T03:46:27.496Z,10.84
2019-03-19T03:47:27.428Z,10.74
2019-03-19T03:48:27.349Z,10.70
2019-03-19T03:49:27.274Z,10.70
2019-03-19T03:50:27.214Z,10.68
2019-03-19T03:51:27.137Z,10.79
2019-03-19T03:52:27.051Z,10.67
2019-03-19T03:53:26.979Z,10.79
2019-03-19T03:54:26.916Z,10.67
2019-03-19T03:55:26.843Z,10.79
2019-03-19T03:56:26.777Z,10.63
2019-03-19T03:57:26.690Z,10.66
2019-03-19T03:58:26.607Z,10.67
2019-03-19T03:59:26.543Z,10.70
2019-03-19T04:00:26.466Z,10.66
2019-03-19T04:01:26.389Z,10.64
2019-03-19T04:02:26.307Z,10.67
2019-03-19T04:03:26.234Z,10.73
2019-03-19T04:04:26.162Z,10.67
2019-03-19T04:05:26.083Z,10.71
2019-03-19T04:06:26.025Z,10.73
2019-03-19T04:07:25.950Z,10.64
2019-03-19T04:08:25.858Z,10.70
2019-03-19T04:09:25.785Z,10.70
2019-03-19T04:10:25.725Z,10.68
2019-03-19T04:11:25.652Z,10.64
2019-03-19T04:12:25.575Z,10.76
2019-03-19T04:13:25.500Z,10.68
2019-03-19T04:14:25.411Z,10.64
2019-03-19T04:15:25.339Z,10.71
2019-03-19T04:16:25.266Z,10.81
2019-03-19T04:17:25.192Z,10.70
2019-03-19T04:18:25.148Z,10.73
2019-03-19T04:19:25.048Z,10.56
2019-03-19T04:20:24.975Z,10.52
2019-03-19T04:21:24.904Z,10.48
2019-03-19T04:22:24.816Z,10.47
2019-03-19T04:23:24.753Z,10.47
2019-03-19T04:24:24.684Z,10.66
2019-03-19T04:25:24.612Z,10.51
2019-03-19T04:26:24.517Z,10.61
2019-03-19T04:27:24.441Z,10.63
2019-03-19T04:28:24.374Z,10.68
2019-03-19T04:29:24.291Z,10.68
2019-03-19T04:30:24.228Z,10.67
2019-03-19T04:31:24.160Z,10.66
2019-03-19T04:32:24.069Z,10.61
2019-03-19T04:33:23.995Z,10.66
2019-03-19T04:34:23.933Z,10.68
2019-03-19T04:35:23.857Z,10.64
2019-03-19T04:36:23.785Z,10.59
2019-03-19T04:37:23.705Z,10.48
2019-03-19T04:38:23.624Z,10.47
2019-03-19T04:39:23.546Z,10.55
2019-03-19T04:40:23.485Z,10.44
2019-03-19T04:41:23.412Z,10.53
2019-03-19T04:42:23.328Z,10.60
2019-03-19T04:43:23.254Z,10.34
2019-03-19T04:44:23.181Z,10.45
2019-03-19T04:45:23.101Z,10.41
2019-03-19T04:46:23.040Z,10.32
2019-03-19T04:47:22.970Z,10.41
2019-03-19T04:48:22.890Z,10.33
2019-03-19T04:49:22.814Z,10.33
2019-03-19T04:50:22.724Z,10.38
2019-03-19T04:51:22.652Z,10.38
2019-03-19T04:52:22.574Z,10.40
2019-03-19T04:53:24.249Z,10.38
2019-03-19T04:54:22.439Z,10.48
2019-03-19T04:55:22.363Z,10.52
2019-03-19T04:56:22.281Z,10.40
2019-03-19T04:57:26.773Z,10.36
2019-03-19T04:58:22.142Z,10.36
2019-03-19T04:59:22.070Z,10.29
2019-03-19T05:00:21.994Z,10.22
2019-03-19T05:01:21.915Z,10.33
2019-03-19T05:02:21.832Z,10.34
2019-03-19T05:03:21.758Z,10.14
2019-03-19T05:04:21.689Z,10.29
2019-03-19T05:05:21.621Z,10.09
2019-03-19T05:06:21.528Z,10.15
2019-03-19T05:07:21.457Z,10.15
2019-03-19T05:08:21.386Z,10.23
2019-03-19T05:09:21.313Z,10.27
2019-03-19T05:10:21.242Z,10.34
2019-03-19T05:11:21.169Z,10.27
2019-03-19T05:12:21.084Z,10.38
2019-03-19T05:13:21.011Z,10.41
2019-03-19T05:14:20.942Z,10.47
2019-03-19T05:15:20.906Z,10.38
2019-03-19T05:16:20.803Z,10.55
2019-03-19T05:17:20.719Z,10.40
2019-03-19T05:18:20.636Z,10.32
2019-03-19T05:19:20.560Z,10.26
2019-03-19T05:20:20.483Z,10.29
2019-03-19T05:21:20.410Z,10.18
2019-03-19T05:22:20.348Z,10.22
2019-03-19T05:23:20.270Z,10.14
2019-03-19T05:24:20.205Z,10.29
2019-03-19T05:25:20.121Z,10.14
2019-03-19T05:26:20.035Z,10.15
2019-03-19T05:27:19.969Z,10.14
2019-03-19T05:28:19.902Z,10.18
2019-03-19T05:29:19.826Z,10.22
2019-03-19T05:30:19.738Z,10.32
2019-03-19T05:31:19.666Z,10.38
2019-03-19T05:32:19.586Z,10.38
2019-03-19T05:33:19.720Z,10.26
2019-03-19T05:34:19.455Z,10.22
2019-03-19T05:35:19.387Z,10.27
2019-03-19T05:36:19.333Z,10.23
2019-03-19T05:37:19.229Z,10.23
2019-03-19T05:38:19.138Z,10.26
2019-03-19T05:39:19.069Z,10.26
2019-03-19T05:40:18.995Z,10.26
2019-03-19T05:41:18.914Z,10.05
2019-03-19T05:42:18.861Z,10.14
2019-03-19T05:43:18.779Z,10.17
2019-03-19T05:44:18.715Z,10.15
2019-03-19T05:45:18.619Z,10.14
2019-03-19T05:46:18.550Z,10.15
2019-03-19T05:47:18.482Z,10.23
2019-03-19T05:48:18.407Z,10.14
2019-03-19T05:49:18.330Z,10.12
2019-03-19T05:50:18.243Z,10.20
2019-03-19T05:51:18.168Z,10.20
2019-03-19T05:52:18.095Z,10.18
2019-03-19T05:53:18.022Z,10.30
2019-03-19T05:54:17.959Z,10.38
2019-03-19T05:55:17.881Z,10.30
2019-03-19T05:56:17.809Z,10.20
2019-03-19T05:57:17.731Z,9.97
2019-03-19T05:58:17.648Z,10.07
2019-03-19T05:59:17.570Z,10.12
2019-03-19T06:00:17.505Z,10.08
2019-03-19T06:01:17.433Z,10.09
2019-03-19T06:02:17.349Z,10.15
2019-03-19T06:03:17.272Z,10.17
2019-03-19T06:04:17.196Z,10.33
2019-03-19T06:05:17.123Z,10.40
2019-03-19T06:06:17.062Z,10.18
2019-03-19T06:07:16.988Z,10.23
2019-03-19T06:08:16.900Z,10.07
2019-03-19T06:09:16.822Z,10.01
2019-03-19T06:10:16.760Z,9.97
2019-03-19T06:11:16.693Z,10.09
2019-03-19T06:12:16.611Z,10.07
2019-03-19T06:13:16.537Z,10.08
2019-03-19T06:14:16.456Z,10.07
2019-03-19T06:15:16.376Z,10.09
2019-03-19T06:16:16.350Z,9.96
2019-03-19T06:17:16.242Z,9.97
2019-03-19T06:18:16.151Z,9.96
2019-03-19T06:19:16.080Z,9.87
2019-03-19T06:20:16.002Z,9.99
2019-03-19T06:21:15.926Z,9.99
2019-03-19T06:22:15.864Z,9.99
2019-03-19T06:23:15.787Z,10.11
2019-03-19T06:24:15.709Z,10.15
2019-03-19T06:25:15.644Z,10.17
2019-03-19T06:26:15.548Z,10.14
2019-03-19T06:27:15.475Z,10.29
2019-03-19T06:28:15.408Z,10.23
2019-03-19T06:29:15.328Z,10.23
2019-03-19T06:30:15.274Z,10.32
2019-03-19T06:31:15.190Z,10.34
2019-03-19T06:32:15.098Z,10.18
2019-03-19T06:33:15.032Z,10.30
2019-03-19T06:34:14.966Z,10.32
2019-03-19T06:35:14.896Z,10.38
2019-03-19T06:36:14.816Z,10.44
2019-03-19T06:37:14.741Z,10.38
2019-03-19T06:38:14.660Z,10.41
2019-03-19T06:39:14.601Z,10.53
2019-03-19T06:40:14.508Z,10.52
2019-03-19T06:41:14.431Z,10.41
2019-03-19T06:42:14.375Z,10.38
2019-03-19T06:43:14.293Z,10.38
2019-03-19T06:44:14.221Z,10.44
2019-03-19T06:45:14.147Z,10.41
2019-03-19T06:46:14.054Z,10.33
2019-03-19T06:47:13.985Z,10.41
2019-03-19T06:48:13.917Z,10.26
2019-03-19T06:49:13.851Z,10.42
2019-03-19T06:50:13.767Z,10.44
2019-03-19T06:51:13.687Z,10.51
2019-03-19T06:52:13.614Z,10.48
2019-03-19T06:53:13.544Z,10.63
2019-03-19T06:54:13.479Z,10.47
2019-03-19T06:55:13.464Z,10.55
2019-03-19T06:56:14.859Z,10.48
2019-03-19T06:57:13.255Z,10.52
2019-03-19T06:58:13.176Z,10.45
2019-03-19T06:59:13.101Z,10.44
2019-03-19T07:00:13.016Z,10.59
2019-03-19T07:01:12.946Z,10.64
2019-03-19T07:02:12.883Z,10.73
2019-03-19T07:03:12.810Z,10.66
2019-03-19T07:04:12.724Z,10.73
2019-03-19T07:05:12.694Z,10.66
2019-03-19T07:06:12.591Z,10.79
2019-03-19T07:07:12.516Z,10.86
2019-03-19T07:08:12.446Z,10.71
2019-03-19T07:09:12.372Z,10.82
2019-03-19T07:10:12.287Z,10.85
2019-03-19T07:11:12.210Z,10.88
2019-03-19T07:12:12.152Z,11.04
2019-03-19T07:13:12.075Z,11.07
2019-03-19T07:14:11.992Z,11.14
2019-03-19T07:15:11.915Z,11.18
2019-03-19T07:16:11.848Z,11.22
2019-03-19T07:17:11.770Z,11.37
2019-03-19T07:18:11.714Z,11.37
2019-03-19T07:19:11.639Z,11.42
2019-03-19T07:20:11.560Z,11.43
2019-03-19T07:21:11.479Z,11.62
2019-03-19T07:22:11.419Z,11.46
2019-03-19T07:23:11.345Z,11.55
2019-03-19T07:24:11.275Z,11.57
2019-03-19T07:25:11.198Z,11.58
2019-03-19T07:26:11.119Z,11.40
2019-03-19T07:27:11.038Z,11.43
2019-03-19T07:28:21.409Z,11.42
2019-03-19T07:29:10.898Z,11.61
2019-03-19T07:30:10.832Z,11.55
2019-03-19T07:31:10.762Z,11.57
2019-03-19T07:32:10.691Z,11.25
2019-03-19T07:33:10.632Z,11.51
2019-03-19T07:34:10.539Z,11.49
2019-03-19T07:35:10.460Z,11.62
2019-03-19T07:36:10.404Z,11.62
2019-03-19T07:37:10.332Z,11.60
2019-03-19T07:38:10.245Z,11.51
2019-03-19T07:39:10.203Z,11.62
2019-03-19T07:40:10.101Z,11.80
2019-03-19T07:41:10.024Z,11.95
2019-03-19T07:42:09.973Z,12.10
2019-03-19T07:43:09.895Z,12.10
2019-03-19T07:44:09.833Z,12.14
2019-03-19T07:45:09.748Z,12.21
2019-03-19T07:46:09.664Z,12.16
2019-03-19T07:47:09.601Z,12.12
2019-03-19T07:48:09.524Z,12.16
2019-03-19T07:49:09.471Z,12.16
2019-03-19T07:50:09.392Z,12.10
2019-03-19T07:51:09.325Z,12.14
2019-03-19T07:52:09.234Z,12.12
2019-03-19T07:53:09.164Z,12.13
2019-03-19T07:54:09.107Z,12.05
2019-03-19T07:55:09.037Z,12.10
2019-03-19T07:56:08.961Z,11.99
2019-03-19T07:57:08.890Z,11.83
2019-03-19T07:58:08.807Z,11.95
2019-03-19T07:59:08.731Z,12.07
2019-03-19T08:00:08.666Z,12.14
2019-03-19T08:01:08.598Z,12.07
2019-03-19T08:02:08.530Z,11.99
2019-03-19T08:03:16.056Z,12.19
2019-03-19T08:04:08.392Z,12.17
2019-03-19T08:05:08.339Z,12.21
2019-03-19T08:06:08.238Z,12.05
2019-03-19T08:07:08.164Z,12.05
2019-03-19T08:08:08.109Z,12.07
2019-03-19T08:09:08.035Z,12.05
2019-03-19T08:10:07.953Z,12.19
2019-03-19T08:11:07.894Z,12.32
2019-03-19T08:12:07.810Z,12.45
2019-03-19T08:13:07.734Z,12.41
2019-03-19T08:14:07.679Z,12.50
2019-03-19T08:15:07.607Z,12.52
2019-03-19T08:16:07.529Z,12.57
2019-03-19T08:17:07.459Z,12.35
2019-03-19T08:18:07.391Z,12.45
2019-03-19T08:19:07.322Z,12.49
2019-03-19T08:20:07.248Z,12.45
2019-03-19T08:21:07.186Z,12.52
2019-03-19T08:22:07.098Z,12.64
2019-03-19T08:23:09.013Z,12.74
2019-03-19T08:24:06.987Z,12.82
2019-03-19T08:25:08.721Z,12.90
2019-03-19T08:26:06.808Z,12.85
2019-03-19T08:27:06.746Z,12.86
2019-03-19T08:28:06.678Z,12.86
2019-03-19T08:29:06.602Z,12.89
2019-03-19T08:30:06.547Z,12.85
2019-03-19T08:31:06.482Z,12.86
2019-03-19T08:32:06.402Z,13.01
2019-03-19T08:33:06.334Z,13.10
2019-03-19T08:34:06.252Z,13.08
2019-03-19T08:35:06.180Z,13.23
2019-03-19T08:36:09.519Z,13.20
2019-03-19T08:37:06.042Z,13.38
2019-03-19T08:38:05.980Z,13.30
2019-03-19T08:39:05.918Z,13.30
2019-03-19T08:40:05.830Z,13.38
2019-03-19T08:41:05.764Z,13.25
2019-03-19T08:42:05.702Z,13.28
2019-03-19T08:43:05.633Z,13.33
2019-03-19T08:44:05.563Z,13.32
2019-03-19T08:45:05.498Z,13.20
2019-03-19T08:46:05.408Z,13.19
2019-03-19T08:47:05.334Z,13.15
2019-03-19T08:48:05.281Z,12.96
2019-03-19T08:49:05.213Z,13.11
2019-03-19T08:50:05.128Z,13.11
2019-03-19T08:51:05.057Z,13.22
2019-03-19T08:52:04.986Z,13.38
2019-03-19T08:53:04.920Z,13.39
2019-03-19T08:54:04.861Z,13.49
2019-03-19T08:55:04.792Z,13.55
2019-03-19T08:56:04.713Z,13.48
2019-03-19T08:57:04.639Z,13.48
2019-03-19T08:58:04.578Z,13.59
2019-03-19T08:59:06.034Z,13.64
2019-03-19T09:00:04.444Z,13.54
2019-03-19T09:01:04.371Z,13.41
2019-03-19T09:02:04.296Z,13.41
2019-03-19T09:03:04.217Z,13.42
2019-03-19T09:04:04.154Z,13.48
2019-03-19T09:05:04.078Z,13.69
2019-03-19T09:06:04.014Z,13.81
2019-03-19T09:07:03.950Z,13.71
2019-03-19T09:08:03.880Z,13.73
2019-03-19T09:09:03.810Z,13.81
2019-03-19T09:10:03.728Z,13.82
2019-03-19T09:11:03.655Z,13.69
2019-03-19T09:12:03.600Z,13.66
2019-03-19T09:13:03.528Z,13.57
2019-03-19T09:14:03.446Z,13.60
2019-03-19T09:15:03.382Z,13.70
2019-03-19T09:16:03.311Z,13.38
2019-03-19T09:17:03.240Z,13.57
2019-03-19T09:18:03.208Z,13.60
2019-03-19T09:19:03.112Z,13.66
2019-03-19T09:20:03.031Z,13.69
2019-03-19T09:21:02.962Z,13.89
2019-03-19T09:22:02.900Z,13.59
2019-03-19T09:23:02.832Z,13.82
2019-03-19T09:24:02.765Z,13.88
2019-03-19T09:25:02.699Z,13.73
2019-03-19T09:26:02.609Z,13.79
2019-03-19T09:27:02.539Z,13.92
2019-03-19T09:28:02.483Z,13.78
2019-03-19T09:29:02.413Z,13.82
2019-03-19T09:30:02.332Z,13.87
2019-03-19T09:31:02.256Z,13.99
2019-03-19T09:32:02.197Z,14.06
2019-03-19T09:33:02.121Z,14.00
2019-03-19T09:34:02.062Z,14.09
2019-03-19T09:35:01.994Z,14.17
2019-03-19T09:36:01.923Z,14.12
2019-03-19T09:37:01.850Z,14.15
2019-03-19T09:38:01.773Z,14.04
2019-03-19T09:39:01.700Z,14.07
2019-03-19T09:40:01.628Z,13.96
2019-03-19T09:41:01.560Z,14.00
2019-03-19T09:42:01.503Z,14.04
2019-03-19T09:43:01.428Z,14.15
2019-03-19T09:44:01.349Z,14.17
2019-03-19T09:45:01.281Z,14.22
2019-03-19T09:46:01.236Z,14.33
2019-03-19T09:47:01.152Z,14.27
2019-03-19T09:48:01.082Z,14.22
2019-03-19T09:49:01.034Z,14.20
2019-03-19T09:50:00.933Z,14.20
2019-03-19T09:51:00.858Z,14.36
2019-03-19T09:52:00.799Z,14.29
2019-03-19T09:53:00.726Z,14.27
2019-03-19T09:54:00.666Z,14.24
2019-03-19T09:55:00.595Z,14.39
2019-03-19T09:56:00.531Z,14.33
2019-03-19T09:57:00.457Z,14.39
2019-03-19T09:58:00.375Z,14.25
2019-03-19T09:59:00.305Z,14.29
2019-03-19T10:00:00.390Z,14.35
2019-03-19T10:01:00.182Z,14.47
2019-03-19T10:02:00.097Z,14.25
2019-03-19T10:03:00.032Z,14.33
2019-03-19T10:03:59.957Z,14.52
2019-03-19T10:04:59.887Z,14.47
2019-03-19T10:05:59.829Z,14.37
2019-03-19T10:07:06.083Z,14.42
2019-03-19T10:07:59.693Z,14.32
2019-03-19T10:08:59.620Z,14.40
2019-03-19T10:09:59.591Z,14.40
2019-03-19T10:10:59.472Z,14.39
2019-03-19T10:11:59.405Z,14.29
2019-03-19T10:12:59.327Z,14.12
2019-03-19T10:13:59.272Z,13.91
2019-03-19T10:14:59.198Z,14.03
2019-03-19T10:15:59.132Z,14.18
2019-03-19T10:16:59.051Z,14.20
2019-03-19T10:17:58.990Z,14.18
2019-03-19T10:18:58.923Z,14.28
2019-03-19T10:19:58.849Z,14.28
2019-03-19T10:20:58.785Z,14.27
2019-03-19T10:21:58.702Z,14.20
2019-03-19T10:22:58.631Z,14.33
2019-03-19T10:23:58.571Z,14.46
2019-03-19T10:24:58.504Z,14.55
2019-03-19T10:25:58.417Z,14.62
2019-03-19T10:26:58.347Z,14.62
2019-03-19T10:27:58.280Z,14.61
2019-03-19T10:28:58.213Z,14.64
2019-03-19T10:29:58.146Z,14.77
2019-03-19T10:30:58.083Z,14.52
2019-03-19T10:31:58.001Z,14.61
2019-03-19T10:32:57.933Z,14.68
2019-03-19T10:33:57.871Z,14.83
2019-03-19T10:34:57.800Z,14.78
2019-03-19T10:35:57.738Z,14.89
2019-03-19T10:36:57.662Z,14.84
2019-03-19T10:37:57.580Z,14.58
2019-03-19T10:38:57.515Z,14.68
2019-03-19T10:39:57.443Z,14.47
2019-03-19T10:40:57.375Z,14.51
2019-03-19T10:41:57.314Z,14.40
2019-03-19T10:42:57.263Z,14.46
2019-03-19T10:43:57.175Z,14.50
2019-03-19T10:44:57.110Z,14.73
2019-03-19T10:45:57.023Z,14.70
2019-03-19T10:46:56.957Z,14.62
2019-03-19T10:47:56.901Z,14.51
2019-03-19T10:48:56.824Z,14.62
2019-03-19T10:49:56.744Z,14.83
2019-03-19T10:50:56.673Z,14.88
2019-03-19T10:51:56.601Z,14.98
2019-03-19T10:52:56.535Z,15.11
2019-03-19T10:53:56.478Z,15.11
2019-03-19T10:54:56.407Z,14.95
2019-03-19T10:55:56.361Z,14.89
2019-03-19T10:56:56.257Z,14.98
2019-03-19T10:57:56.197Z,14.73
2019-03-19T10:58:56.136Z,14.68
2019-03-19T10:59:56.060Z,14.73
2019-03-19T11:00:55.991Z,14.58
2019-03-19T11:01:55.908Z,14.60
2019-03-19T11:02:55.845Z,14.80
2019-03-19T11:03:55.777Z,14.86
2019-03-19T11:04:55.712Z,14.95
2019-03-19T11:05:55.628Z,14.88
2019-03-19T11:06:55.558Z,14.91
2019-03-19T11:07:55.511Z,14.94
2019-03-19T11:08:55.419Z,15.11
2019-03-19T11:09:55.362Z,15.10
2019-03-19T11:10:55.294Z,14.96
2019-03-19T11:11:55.232Z,14.99
2019-03-19T11:12:55.153Z,15.20
2019-03-19T11:13:55.071Z,15.17
2019-03-19T11:14:54.997Z,15.16
2019-03-19T11:15:54.933Z,15.17
2019-03-19T11:16:54.859Z,15.01
2019-03-19T11:17:54.801Z,15.20
2019-03-19T11:18:54.732Z,15.21
2019-03-19T11:19:54.652Z,15.06
2019-03-19T11:20:54.583Z,14.89
2019-03-19T11:21:54.554Z,14.81
2019-03-19T11:22:54.458Z,14.81
2019-03-19T11:23:54.388Z,14.86
2019-03-19T11:24:54.312Z,14.88
2019-03-19T11:25:54.843Z,14.94
2019-03-19T11:26:54.160Z,14.91
2019-03-19T11:27:54.114Z,14.81
2019-03-19T11:28:54.032Z,14.75
2019-03-19T11:29:59.788Z,14.86
2019-03-19T11:30:53.889Z,14.84
2019-03-19T11:31:53.813Z,14.86
2019-03-19T11:32:53.745Z,14.94
2019-03-19T11:33:53.687Z,14.95
2019-03-19T11:34:53.616Z,15.02
2019-03-19T11:35:53.535Z,15.13
2019-03-19T11:36:57.644Z,15.23
2019-03-19T11:37:53.402Z,15.17
2019-03-19T11:38:53.331Z,15.31
2019-03-19T11:39:53.268Z,15.19
2019-03-19T11:40:53.195Z,15.19
2019-03-19T11:41:53.114Z,15.20
2019-03-19T11:42:53.049Z,15.06
2019-03-19T11:43:52.971Z,15.11
2019-03-19T11:44:52.901Z,15.09
2019-03-19T11:45:52.862Z,15.14
2019-03-19T11:46:53.643Z,15.16
2019-03-19T11:47:52.744Z,15.02
2019-03-19T11:48:52.636Z,15.11
2019-03-19T11:49:52.557Z,15.10
2019-03-19T11:50:52.483Z,15.17
2019-03-19T11:51:52.422Z,15.20
2019-03-19T11:52:52.353Z,15.21
2019-03-19T11:53:52.268Z,15.28
2019-03-19T11:54:52.200Z,15.20
2019-03-19T11:55:52.130Z,15.31
2019-03-19T11:56:52.059Z,15.34
2019-03-19T11:57:52.003Z,15.35
2019-03-19T11:58:51.934Z,15.34
2019-03-19T11:59:51.870Z,15.39
2019-03-19T12:00:51.790Z,15.38
2019-03-19T12:01:51.713Z,15.47
2019-03-19T12:02:51.640Z,15.38
2019-03-19T12:03:51.567Z,15.44
2019-03-19T12:04:51.502Z,15.49
2019-03-19T12:05:51.444Z,15.49
2019-03-19T12:06:51.376Z,15.56
2019-03-19T12:07:51.300Z,15.53
2019-03-19T12:08:51.228Z,15.59
2019-03-19T12:09:51.164Z,15.56
2019-03-19T12:10:51.096Z,15.51
2019-03-19T12:11:51.023Z,15.51
2019-03-19T12:12:50.954Z,15.57
2019-03-19T12:13:50.867Z,15.54
2019-03-19T12:14:50.859Z,15.65
2019-03-19T12:15:50.731Z,15.71
2019-03-19T12:16:50.658Z,15.71
2019-03-19T12:17:50.640Z,15.56
2019-03-19T12:18:50.533Z,15.71
2019-03-19T12:19:50.461Z,15.72
2019-03-19T12:20:50.396Z,15.71
2019-03-19T12:21:50.313Z,15.80
2019-03-19T12:22:50.245Z,15.72
2019-03-19T12:23:50.194Z,15.75
2019-03-19T12:24:50.112Z,15.78
2019-03-19T12:25:50.033Z,15.89
2019-03-19T12:26:49.967Z,15.74
2019-03-19T12:27:49.896Z,15.90
2019-03-19T12:28:49.820Z,15.89
2019-03-19T12:29:49.770Z,15.84
2019-03-19T12:30:49.695Z,15.90
2019-03-19T12:31:49.615Z,15.78
2019-03-19T12:32:49.542Z,15.87
2019-03-19T12:33:49.486Z,15.83
2019-03-19T12:34:49.418Z,15.78
2019-03-19T12:35:49.346Z,15.82
2019-03-19T12:36:49.276Z,15.74
2019-03-19T12:37:49.197Z,15.72
2019-03-19T12:38:49.127Z,15.78
2019-03-19T12:39:49.074Z,15.76
2019-03-19T12:40:48.996Z,15.78
2019-03-19T12:41:48.914Z,15.82
2019-03-19T12:42:48.845Z,15.90
2019-03-19T12:43:48.771Z,15.78
2019-03-19T12:44:48.703Z,15.69
2019-03-19T12:45:48.649Z,15.72
2019-03-19T12:46:48.577Z,15.75
2019-03-19T12:47:48.510Z,15.75
2019-03-19T12:48:48.434Z,15.86
2019-03-19T12:49:48.356Z,15.71
2019-03-19T12:50:48.285Z,15.80
2019-03-19T12:51:48.211Z,15.92